sensor_id;sensor_type;location;lat;lon;timestamp;temperature;humidity
20045;DHT22;10183;47.808;9.476;2022-09-06T00:01:28;13.60;99.90
20045;DHT22;10183;47.808;9.476;2022-09-06T00:03:54;13.60;99.90
20045;DHT22;10183;47.808;9.476;2022-09-06T00:06:20;13.70;99.90
20045;DHT22;10183;47.808;9.476;2022-09-06T00:08:47;13.70;99.90
20045;DHT22;10183;47.808;9.476;2022-09-06T00:11:14;13.70;99.90
20045;DHT22;10183;47.808;9.476;2022-09-06T00:13:41;13.80;99.90
20045;DHT22;10183;47.808;9.476;2022-09-06T00:16:18;13.70;99.90
20045;DHT22;10183;47.808;9.476;2022-09-06T00:18:45;13.70;99.90
20045;DHT22;10183;47.808;9.476;2022-09-06T00:21:17;13.80;99.90
20045;DHT22;10183;47.808;9.476;2022-09-06T00:23:44;13.80;99.90
20045;DHT22;10183;47.808;9.476;2022-09-06T00:26:10;13.80;99.90
20045;DHT22;10183;47.808;9.476;2022-09-06T00:28:37;13.80;99.90
20045;DHT22;10183;47.808;9.476;2022-09-06T00:31:12;13.70;99.90
20045;DHT22;10183;47.808;9.476;2022-09-06T00:33:39;13.70;99.90
20045;DHT22;10183;47.808;9.476;2022-09-06T00:36:06;13.70;99.90
20045;DHT22;10183;47.808;9.476;2022-09-06T00:38:33;13.70;99.90
20045;DHT22;10183;47.808;9.476;2022-09-06T00:40:59;13.50;99.90
20045;DHT22;10183;47.808;9.476;2022-09-06T00:43:26;13.40;99.90
20045;DHT22;10183;47.808;9.476;2022-09-06T00:45:53;13.40;99.90
20045;DHT22;10183;47.808;9.476;2022-09-06T00:48:20;13.40;99.90
20045;DHT22;10183;47.808;9.476;2022-09-06T00:50:50;13.00;99.90
20045;DHT22;10183;47.808;9.476;2022-09-06T00:53:18;13.00;99.90
20045;DHT22;10183;47.808;9.476;2022-09-06T00:55:44;13.00;99.90
20045;DHT22;10183;47.808;9.476;2022-09-06T00:58:11;13.00;99.90
20045;DHT22;10183;47.808;9.476;2022-09-06T01:00:37;12.90;99.90
20045;DHT22;10183;47.808;9.476;2022-09-06T01:03:05;12.80;99.90
20045;DHT22;10183;47.808;9.476;2022-09-06T01:16:39;12.80;99.90
20045;DHT22;10183;47.808;9.476;2022-09-06T01:20:18;12.90;99.90
20045;DHT22;10183;47.808;9.476;2022-09-06T01:25:34;12.90;99.90
20045;DHT22;10183;47.808;9.476;2022-09-06T01:31:10;12.80;99.90
20045;DHT22;10183;47.808;9.476;2022-09-06T01:36:43;13.00;99.90
20045;DHT22;10183;47.808;9.476;2022-09-06T01:39:27;13.10;99.90
20045;DHT22;10183;47.808;9.476;2022-09-06T01:41:59;13.20;99.90
20045;DHT22;10183;47.808;9.476;2022-09-06T01:44:27;13.30;99.90
20045;DHT22;10183;47.808;9.476;2022-09-06T01:47:01;13.20;99.90
20045;DHT22;10183;47.808;9.476;2022-09-06T01:52:32;13.30;99.90
20045;DHT22;10183;47.808;9.476;2022-09-06T02:00:53;13.40;99.90
20045;DHT22;10183;47.808;9.476;2022-09-06T02:06:13;13.30;99.90
20045;DHT22;10183;47.808;9.476;2022-09-06T02:08:49;13.30;99.90
20045;DHT22;10183;47.808;9.476;2022-09-06T02:11:18;13.30;99.90
20045;DHT22;10183;47.808;9.476;2022-09-06T02:13:54;13.30;99.90
20045;DHT22;10183;47.808;9.476;2022-09-06T02:16:25;13.20;99.90
20045;DHT22;10183;47.808;9.476;2022-09-06T02:19:31;13.20;99.90
20045;DHT22;10183;47.808;9.476;2022-09-06T02:22:02;13.10;99.90
20045;DHT22;10183;47.808;9.476;2022-09-06T02:24:30;13.30;99.90
20045;DHT22;10183;47.808;9.476;2022-09-06T02:26:57;13.30;99.90
20045;DHT22;10183;47.808;9.476;2022-09-06T02:29:23;13.30;99.90
20045;DHT22;10183;47.808;9.476;2022-09-06T02:31:51;13.30;99.90
20045;DHT22;10183;47.808;9.476;2022-09-06T02:34:19;13.10;99.90
20045;DHT22;10183;47.808;9.476;2022-09-06T02:36:46;13.00;99.90
20045;DHT22;10183;47.808;9.476;2022-09-06T02:39:12;13.00;99.90
20045;DHT22;10183;47.808;9.476;2022-09-06T02:41:42;13.10;99.90
20045;DHT22;10183;47.808;9.476;2022-09-06T02:44:10;12.90;99.90
20045;DHT22;10183;47.808;9.476;2022-09-06T02:46:37;12.90;99.90
20045;DHT22;10183;47.808;9.476;2022-09-06T02:49:03;13.00;99.90
20045;DHT22;10183;47.808;9.476;2022-09-06T02:51:30;13.00;99.90
20045;DHT22;10183;47.808;9.476;2022-09-06T02:54:00;12.90;99.90
20045;DHT22;10183;47.808;9.476;2022-09-06T02:56:26;13.00;99.90
20045;DHT22;10183;47.808;9.476;2022-09-06T02:58:52;13.10;99.90
20045;DHT22;10183;47.808;9.476;2022-09-06T03:01:18;13.00;99.90
20045;DHT22;10183;47.808;9.476;2022-09-06T03:03:44;12.90;99.90
20045;DHT22;10183;47.808;9.476;2022-09-06T03:06:11;12.90;99.90
20045;DHT22;10183;47.808;9.476;2022-09-06T03:08:37;13.00;99.90
20045;DHT22;10183;47.808;9.476;2022-09-06T03:11:03;13.20;99.90
20045;DHT22;10183;47.808;9.476;2022-09-06T03:13:29;13.30;99.90
20045;DHT22;10183;47.808;9.476;2022-09-06T03:15:57;13.50;99.90
20045;DHT22;10183;47.808;9.476;2022-09-06T03:18:26;13.70;99.90
20045;DHT22;10183;47.808;9.476;2022-09-06T03:20:53;13.80;99.90
20045;DHT22;10183;47.808;9.476;2022-09-06T03:23:23;14.00;99.90
20045;DHT22;10183;47.808;9.476;2022-09-06T03:25:50;14.60;99.90
20045;DHT22;10183;47.808;9.476;2022-09-06T03:28:17;14.90;99.90
20045;DHT22;10183;47.808;9.476;2022-09-06T03:30:44;15.10;99.90
20045;DHT22;10183;47.808;9.476;2022-09-06T03:33:11;15.10;99.90
20045;DHT22;10183;47.808;9.476;2022-09-06T03:35:37;15.10;99.90
20045;DHT22;10183;47.808;9.476;2022-09-06T03:38:04;15.10;99.90
20045;DHT22;10183;47.808;9.476;2022-09-06T03:40:30;15.10;99.90
20045;DHT22;10183;47.808;9.476;2022-09-06T03:42:56;15.10;99.90
20045;DHT22;10183;47.808;9.476;2022-09-06T03:45:22;15.10;99.90
20045;DHT22;10183;47.808;9.476;2022-09-06T03:47:48;15.00;99.90
20045;DHT22;10183;47.808;9.476;2022-09-06T03:50:15;15.00;99.90
20045;DHT22;10183;47.808;9.476;2022-09-06T03:52:41;15.00;99.90
20045;DHT22;10183;47.808;9.476;2022-09-06T03:55:07;15.00;99.90
20045;DHT22;10183;47.808;9.476;2022-09-06T03:57:33;15.00;99.90
20045;DHT22;10183;47.808;9.476;2022-09-06T03:59:59;15.00;99.90
20045;DHT22;10183;47.808;9.476;2022-09-06T04:02:26;15.10;99.90
20045;DHT22;10183;47.808;9.476;2022-09-06T04:04:52;15.10;99.90
20045;DHT22;10183;47.808;9.476;2022-09-06T04:07:21;15.10;99.90
20045;DHT22;10183;47.808;9.476;2022-09-06T04:09:47;15.10;99.90
20045;DHT22;10183;47.808;9.476;2022-09-06T04:12:14;15.10;99.90
20045;DHT22;10183;47.808;9.476;2022-09-06T04:14:40;15.10;99.90
20045;DHT22;10183;47.808;9.476;2022-09-06T04:17:06;15.10;99.90
20045;DHT22;10183;47.808;9.476;2022-09-06T04:19:32;15.10;99.90
20045;DHT22;10183;47.808;9.476;2022-09-06T04:21:59;15.10;99.90
20045;DHT22;10183;47.808;9.476;2022-09-06T04:24:25;15.20;99.90
20045;DHT22;10183;47.808;9.476;2022-09-06T04:26:51;15.10;99.90
20045;DHT22;10183;47.808;9.476;2022-09-06T04:29:17;15.20;99.90
20045;DHT22;10183;47.808;9.476;2022-09-06T04:31:43;15.20;99.90
20045;DHT22;10183;47.808;9.476;2022-09-06T04:34:09;15.30;99.90
20045;DHT22;10183;47.808;9.476;2022-09-06T04:36:36;15.30;99.90
20045;DHT22;10183;47.808;9.476;2022-09-06T04:39:02;15.30;99.90
20045;DHT22;10183;47.808;9.476;2022-09-06T04:41:28;15.30;99.90
20045;DHT22;10183;47.808;9.476;2022-09-06T04:43:54;15.30;99.90
20045;DHT22;10183;47.808;9.476;2022-09-06T04:46:24;15.30;99.90
20045;DHT22;10183;47.808;9.476;2022-09-06T04:48:52;15.30;99.90
20045;DHT22;10183;47.808;9.476;2022-09-06T04:51:18;15.10;99.90
20045;DHT22;10183;47.808;9.476;2022-09-06T04:53:46;14.90;99.90
20045;DHT22;10183;47.808;9.476;2022-09-06T04:56:15;14.80;99.90
20045;DHT22;10183;47.808;9.476;2022-09-06T04:58:42;14.80;99.90
20045;DHT22;10183;47.808;9.476;2022-09-06T05:01:09;14.80;99.90
20045;DHT22;10183;47.808;9.476;2022-09-06T05:03:35;14.90;99.90
20045;DHT22;10183;47.808;9.476;2022-09-06T05:06:10;14.90;99.90
20045;DHT22;10183;47.808;9.476;2022-09-06T05:08:40;15.00;99.90
20045;DHT22;10183;47.808;9.476;2022-09-06T05:11:07;15.00;99.90
20045;DHT22;10183;47.808;9.476;2022-09-06T05:13:34;15.10;99.90
20045;DHT22;10183;47.808;9.476;2022-09-06T05:16:01;15.00;99.90
20045;DHT22;10183;47.808;9.476;2022-09-06T05:18:28;14.90;99.90
20045;DHT22;10183;47.808;9.476;2022-09-06T05:20:54;14.90;99.90
20045;DHT22;10183;47.808;9.476;2022-09-06T05:23:21;15.10;99.90
20045;DHT22;10183;47.808;9.476;2022-09-06T05:25:48;15.10;99.90
20045;DHT22;10183;47.808;9.476;2022-09-06T05:28:14;15.30;99.90
20045;DHT22;10183;47.808;9.476;2022-09-06T05:30:41;15.30;99.90
20045;DHT22;10183;47.808;9.476;2022-09-06T05:33:08;15.30;99.90
20045;DHT22;10183;47.808;9.476;2022-09-06T05:35:34;15.40;99.90
20045;DHT22;10183;47.808;9.476;2022-09-06T05:38:00;15.50;99.90
20045;DHT22;10183;47.808;9.476;2022-09-06T05:40:27;15.60;99.90
20045;DHT22;10183;47.808;9.476;2022-09-06T05:42:53;15.60;99.90
20045;DHT22;10183;47.808;9.476;2022-09-06T05:45:19;15.60;99.90
20045;DHT22;10183;47.808;9.476;2022-09-06T05:47:45;15.70;99.90
20045;DHT22;10183;47.808;9.476;2022-09-06T05:50:11;15.70;99.90
20045;DHT22;10183;47.808;9.476;2022-09-06T05:52:38;15.70;99.90
20045;DHT22;10183;47.808;9.476;2022-09-06T05:55:06;15.70;99.90
20045;DHT22;10183;47.808;9.476;2022-09-06T05:57:32;15.80;99.90
20045;DHT22;10183;47.808;9.476;2022-09-06T05:59:58;15.80;99.90
20045;DHT22;10183;47.808;9.476;2022-09-06T06:02:24;15.80;99.90
20045;DHT22;10183;47.808;9.476;2022-09-06T06:04:51;15.90;99.90
20045;DHT22;10183;47.808;9.476;2022-09-06T06:07:19;15.90;99.90
20045;DHT22;10183;47.808;9.476;2022-09-06T06:09:45;16.00;99.90
20045;DHT22;10183;47.808;9.476;2022-09-06T06:12:12;16.00;99.90
20045;DHT22;10183;47.808;9.476;2022-09-06T06:14:38;16.10;99.90
20045;DHT22;10183;47.808;9.476;2022-09-06T06:17:04;16.20;99.90
20045;DHT22;10183;47.808;9.476;2022-09-06T06:19:30;16.30;99.90
20045;DHT22;10183;47.808;9.476;2022-09-06T06:21:56;16.50;99.90
20045;DHT22;10183;47.808;9.476;2022-09-06T06:24:23;16.60;99.90
20045;DHT22;10183;47.808;9.476;2022-09-06T06:26:49;16.70;99.90
20045;DHT22;10183;47.808;9.476;2022-09-06T06:29:15;16.80;99.90
20045;DHT22;10183;47.808;9.476;2022-09-06T06:31:41;16.80;99.90
20045;DHT22;10183;47.808;9.476;2022-09-06T06:34:07;16.90;99.90
20045;DHT22;10183;47.808;9.476;2022-09-06T06:36:35;17.00;99.90
20045;DHT22;10183;47.808;9.476;2022-09-06T06:39:03;17.20;99.90
20045;DHT22;10183;47.808;9.476;2022-09-06T06:41:31;17.30;99.90
20045;DHT22;10183;47.808;9.476;2022-09-06T06:44:01;17.60;99.90
20045;DHT22;10183;47.808;9.476;2022-09-06T06:46:30;17.70;99.90
20045;DHT22;10183;47.808;9.476;2022-09-06T06:48:57;17.80;99.90
20045;DHT22;10183;47.808;9.476;2022-09-06T06:51:25;17.90;99.90
20045;DHT22;10183;47.808;9.476;2022-09-06T06:53:53;17.90;99.90
20045;DHT22;10183;47.808;9.476;2022-09-06T06:56:30;17.90;99.90
20045;DHT22;10183;47.808;9.476;2022-09-06T06:58:59;17.90;99.90
20045;DHT22;10183;47.808;9.476;2022-09-06T07:01:27;17.90;99.90
20045;DHT22;10183;47.808;9.476;2022-09-06T07:03:54;17.90;99.90
20045;DHT22;10183;47.808;9.476;2022-09-06T07:06:21;17.90;99.90
20045;DHT22;10183;47.808;9.476;2022-09-06T07:08:48;18.00;99.90
20045;DHT22;10183;47.808;9.476;2022-09-06T07:11:16;18.10;99.90
20045;DHT22;10183;47.808;9.476;2022-09-06T07:13:42;18.20;99.90
20045;DHT22;10183;47.808;9.476;2022-09-06T07:16:14;18.30;99.90
20045;DHT22;10183;47.808;9.476;2022-09-06T07:18:42;18.50;99.90
20045;DHT22;10183;47.808;9.476;2022-09-06T07:21:12;18.60;99.90
20045;DHT22;10183;47.808;9.476;2022-09-06T07:23:39;18.60;99.90
20045;DHT22;10183;47.808;9.476;2022-09-06T07:26:06;18.80;99.90
20045;DHT22;10183;47.808;9.476;2022-09-06T07:28:33;18.90;99.90
20045;DHT22;10183;47.808;9.476;2022-09-06T07:30:59;19.00;99.90
20045;DHT22;10183;47.808;9.476;2022-09-06T07:33:25;19.10;99.90
20045;DHT22;10183;47.808;9.476;2022-09-06T07:36:00;19.10;99.90
20045;DHT22;10183;47.808;9.476;2022-09-06T07:38:27;19.30;99.90
20045;DHT22;10183;47.808;9.476;2022-09-06T07:40:56;19.40;99.90
20045;DHT22;10183;47.808;9.476;2022-09-06T07:43:22;19.50;99.90
20045;DHT22;10183;47.808;9.476;2022-09-06T07:46:15;19.70;99.90
20045;DHT22;10183;47.808;9.476;2022-09-06T07:48:43;19.70;99.90
20045;DHT22;10183;47.808;9.476;2022-09-06T07:51:12;19.70;99.90
20045;DHT22;10183;47.808;9.476;2022-09-06T07:53:40;19.60;99.90
20045;DHT22;10183;47.808;9.476;2022-09-06T07:56:08;19.80;99.90
20045;DHT22;10183;47.808;9.476;2022-09-06T07:58:35;19.70;99.90
20045;DHT22;10183;47.808;9.476;2022-09-06T08:03:50;20.00;99.90
20045;DHT22;10183;47.808;9.476;2022-09-06T08:06:16;20.00;99.90
20045;DHT22;10183;47.808;9.476;2022-09-06T08:08:43;19.90;99.90
20045;DHT22;10183;47.808;9.476;2022-09-06T08:11:09;19.90;99.90
20045;DHT22;10183;47.808;9.476;2022-09-06T08:13:36;20.00;99.90
20045;DHT22;10183;47.808;9.476;2022-09-06T08:16:07;20.10;99.90
20045;DHT22;10183;47.808;9.476;2022-09-06T08:18:35;20.30;99.90
20045;DHT22;10183;47.808;9.476;2022-09-06T08:21:06;20.40;99.90
20045;DHT22;10183;47.808;9.476;2022-09-06T08:23:32;20.40;99.90
20045;DHT22;10183;47.808;9.476;2022-09-06T08:25:59;20.60;99.90
20045;DHT22;10183;47.808;9.476;2022-09-06T08:28:25;21.00;99.90
20045;DHT22;10183;47.808;9.476;2022-09-06T08:30:52;21.00;99.90
20045;DHT22;10183;47.808;9.476;2022-09-06T08:33:18;21.30;99.90
20045;DHT22;10183;47.808;9.476;2022-09-06T08:35:57;21.60;99.90
20045;DHT22;10183;47.808;9.476;2022-09-06T08:38:24;21.70;99.90
20045;DHT22;10183;47.808;9.476;2022-09-06T08:40:51;21.60;99.90
20045;DHT22;10183;47.808;9.476;2022-09-06T08:43:20;21.70;99.90
20045;DHT22;10183;47.808;9.476;2022-09-06T08:45:51;21.80;99.90
20045;DHT22;10183;47.808;9.476;2022-09-06T08:48:20;22.10;99.90
20045;DHT22;10183;47.808;9.476;2022-09-06T08:51:04;22.00;99.90
20045;DHT22;10183;47.808;9.476;2022-09-06T08:53:38;21.90;99.90
20045;DHT22;10183;47.808;9.476;2022-09-06T08:56:22;21.80;99.90
20045;DHT22;10183;47.808;9.476;2022-09-06T08:58:57;21.70;99.90
20045;DHT22;10183;47.808;9.476;2022-09-06T09:04:04;22.50;99.90
20045;DHT22;10183;47.808;9.476;2022-09-06T09:06:32;22.80;99.90
20045;DHT22;10183;47.808;9.476;2022-09-06T09:09:12;22.90;99.90
20045;DHT22;10183;47.808;9.476;2022-09-06T09:11:42;22.10;99.90
20045;DHT22;10183;47.808;9.476;2022-09-06T09:16:47;21.70;99.90
20045;DHT22;10183;47.808;9.476;2022-09-06T09:19:14;21.80;99.90
20045;DHT22;10183;47.808;9.476;2022-09-06T09:21:40;21.70;99.90
20045;DHT22;10183;47.808;9.476;2022-09-06T09:24:09;21.60;99.90
20045;DHT22;10183;47.808;9.476;2022-09-06T09:29:24;21.50;99.90
20045;DHT22;10183;47.808;9.476;2022-09-06T09:31:53;21.50;99.90
20045;DHT22;10183;47.808;9.476;2022-09-06T09:34:34;21.70;99.90
20045;DHT22;10183;47.808;9.476;2022-09-06T09:39:39;21.50;99.90
20045;DHT22;10183;47.808;9.476;2022-09-06T09:42:06;21.40;99.90
20045;DHT22;10183;47.808;9.476;2022-09-06T09:44:40;21.40;99.90
20045;DHT22;10183;47.808;9.476;2022-09-06T09:47:21;21.60;99.90
20045;DHT22;10183;47.808;9.476;2022-09-06T09:49:48;21.40;99.90
20045;DHT22;10183;47.808;9.476;2022-09-06T09:52:14;21.40;99.90
20045;DHT22;10183;47.808;9.476;2022-09-06T09:54:44;21.30;99.90
20045;DHT22;10183;47.808;9.476;2022-09-06T09:57:17;21.30;99.90
20045;DHT22;10183;47.808;9.476;2022-09-06T09:59:46;21.30;99.90
20045;DHT22;10183;47.808;9.476;2022-09-06T10:04:48;21.20;99.90
20045;DHT22;10183;47.808;9.476;2022-09-06T10:07:20;21.20;99.90
20045;DHT22;10183;47.808;9.476;2022-09-06T10:09:49;21.20;99.90
20045;DHT22;10183;47.808;9.476;2022-09-06T10:12:31;21.30;99.90
20045;DHT22;10183;47.808;9.476;2022-09-06T10:14:58;21.50;99.90
20045;DHT22;10183;47.808;9.476;2022-09-06T10:20:09;21.60;99.90
20045;DHT22;10183;47.808;9.476;2022-09-06T10:22:46;21.50;99.90
20045;DHT22;10183;47.808;9.476;2022-09-06T10:25:35;21.40;99.90
20045;DHT22;10183;47.808;9.476;2022-09-06T10:28:29;21.30;99.90
20045;DHT22;10183;47.808;9.476;2022-09-06T10:31:11;21.40;99.90
20045;DHT22;10183;47.808;9.476;2022-09-06T10:36:35;21.60;99.90
20045;DHT22;10183;47.808;9.476;2022-09-06T10:47:13;21.40;99.90
20045;DHT22;10183;47.808;9.476;2022-09-06T10:49:43;21.40;99.90
20045;DHT22;10183;47.808;9.476;2022-09-06T10:52:23;21.30;99.90
20045;DHT22;10183;47.808;9.476;2022-09-06T10:54:53;21.30;99.90
20045;DHT22;10183;47.808;9.476;2022-09-06T10:57:29;21.40;99.90
20045;DHT22;10183;47.808;9.476;2022-09-06T11:00:05;21.40;99.90
20045;DHT22;10183;47.808;9.476;2022-09-06T11:03:00;21.40;99.90
20045;DHT22;10183;47.808;9.476;2022-09-06T11:05:40;21.60;99.90
20045;DHT22;10183;47.808;9.476;2022-09-06T11:11:10;21.30;99.90
20045;DHT22;10183;47.808;9.476;2022-09-06T11:13:38;21.40;99.90
20045;DHT22;10183;47.808;9.476;2022-09-06T11:24:15;21.20;99.90
20045;DHT22;10183;47.808;9.476;2022-09-06T11:29:29;21.60;99.90
20045;DHT22;10183;47.808;9.476;2022-09-06T11:31:59;22.10;99.90
20045;DHT22;10183;47.808;9.476;2022-09-06T11:34:31;22.40;99.90
20045;DHT22;10183;47.808;9.476;2022-09-06T11:37:00;22.70;99.90
20045;DHT22;10183;47.808;9.476;2022-09-06T11:41:56;22.40;99.90
20045;DHT22;10183;47.808;9.476;2022-09-06T11:44:52;22.00;99.90
20045;DHT22;10183;47.808;9.476;2022-09-06T11:47:39;22.00;99.90
20045;DHT22;10183;47.808;9.476;2022-09-06T11:55:38;22.00;99.90
20045;DHT22;10183;47.808;9.476;2022-09-06T12:00:44;21.40;99.90
20045;DHT22;10183;47.808;9.476;2022-09-06T12:06:23;21.10;99.90
20045;DHT22;10183;47.808;9.476;2022-09-06T12:08:53;20.80;99.90
20045;DHT22;10183;47.808;9.476;2022-09-06T12:14:29;20.60;99.90
20045;DHT22;10183;47.808;9.476;2022-09-06T12:19:49;20.50;99.90
20045;DHT22;10183;47.808;9.476;2022-09-06T12:24:59;20.80;99.90
20045;DHT22;10183;47.808;9.476;2022-09-06T12:27:29;20.80;99.90
20045;DHT22;10183;47.808;9.476;2022-09-06T12:30:07;20.80;99.90
20045;DHT22;10183;47.808;9.476;2022-09-06T12:32:39;20.80;99.90
20045;DHT22;10183;47.808;9.476;2022-09-06T12:35:16;20.80;99.90
20045;DHT22;10183;47.808;9.476;2022-09-06T12:37:53;20.90;99.90
20045;DHT22;10183;47.808;9.476;2022-09-06T12:40:21;20.90;99.90
20045;DHT22;10183;47.808;9.476;2022-09-06T12:42:49;20.90;99.90
20045;DHT22;10183;47.808;9.476;2022-09-06T12:45:20;20.90;99.90
20045;DHT22;10183;47.808;9.476;2022-09-06T12:47:47;21.30;99.90
20045;DHT22;10183;47.808;9.476;2022-09-06T12:58:02;21.50;99.90
20045;DHT22;10183;47.808;9.476;2022-09-06T13:03:21;21.60;99.90
20045;DHT22;10183;47.808;9.476;2022-09-06T13:05:52;21.60;99.90
20045;DHT22;10183;47.808;9.476;2022-09-06T13:10:53;21.60;99.90
20045;DHT22;10183;47.808;9.476;2022-09-06T13:13:22;21.80;99.90
20045;DHT22;10183;47.808;9.476;2022-09-06T13:15:50;21.70;99.90
20045;DHT22;10183;47.808;9.476;2022-09-06T13:18:38;21.60;99.90
20045;DHT22;10183;47.808;9.476;2022-09-06T13:21:09;21.60;99.90
20045;DHT22;10183;47.808;9.476;2022-09-06T13:23:48;21.60;99.90
20045;DHT22;10183;47.808;9.476;2022-09-06T13:26:36;21.50;99.90
20045;DHT22;10183;47.808;9.476;2022-09-06T13:31:52;21.20;99.90
20045;DHT22;10183;47.808;9.476;2022-09-06T13:34:27;21.00;99.90
20045;DHT22;10183;47.808;9.476;2022-09-06T13:37:05;21.00;99.90
20045;DHT22;10183;47.808;9.476;2022-09-06T13:39:37;21.00;99.90
20045;DHT22;10183;47.808;9.476;2022-09-06T13:42:09;20.90;99.90
20045;DHT22;10183;47.808;9.476;2022-09-06T13:44:39;20.80;99.90
20045;DHT22;10183;47.808;9.476;2022-09-06T13:47:05;20.80;99.90
20045;DHT22;10183;47.808;9.476;2022-09-06T13:49:32;20.80;99.90
20045;DHT22;10183;47.808;9.476;2022-09-06T13:52:00;20.70;99.90
20045;DHT22;10183;47.808;9.476;2022-09-06T13:54:28;20.40;99.90
20045;DHT22;10183;47.808;9.476;2022-09-06T13:56:55;20.40;99.90
20045;DHT22;10183;47.808;9.476;2022-09-06T13:59:23;20.50;99.90
20045;DHT22;10183;47.808;9.476;2022-09-06T14:02:12;20.70;99.90
20045;DHT22;10183;47.808;9.476;2022-09-06T14:04:40;20.70;99.90
20045;DHT22;10183;47.808;9.476;2022-09-06T14:07:06;20.40;99.90
20045;DHT22;10183;47.808;9.476;2022-09-06T14:09:32;20.50;99.90
20045;DHT22;10183;47.808;9.476;2022-09-06T14:11:59;20.50;99.90
20045;DHT22;10183;47.808;9.476;2022-09-06T14:14:25;20.50;99.90
20045;DHT22;10183;47.808;9.476;2022-09-06T14:16:51;20.40;99.90
20045;DHT22;10183;47.808;9.476;2022-09-06T14:19:18;20.50;99.90
20045;DHT22;10183;47.808;9.476;2022-09-06T14:21:45;20.70;99.90
20045;DHT22;10183;47.808;9.476;2022-09-06T14:24:11;20.80;99.90
20045;DHT22;10183;47.808;9.476;2022-09-06T14:26:37;21.00;99.90
20045;DHT22;10183;47.808;9.476;2022-09-06T14:29:04;21.10;99.90
20045;DHT22;10183;47.808;9.476;2022-09-06T14:31:31;21.10;99.90
20045;DHT22;10183;47.808;9.476;2022-09-06T14:33:57;21.00;99.90
20045;DHT22;10183;47.808;9.476;2022-09-06T14:36:26;21.10;99.90
20045;DHT22;10183;47.808;9.476;2022-09-06T14:38:57;21.30;99.90
20045;DHT22;10183;47.808;9.476;2022-09-06T14:41:23;21.40;99.90
20045;DHT22;10183;47.808;9.476;2022-09-06T14:43:51;21.30;99.90
20045;DHT22;10183;47.808;9.476;2022-09-06T14:46:20;20.80;99.90
20045;DHT22;10183;47.808;9.476;2022-09-06T14:48:47;20.90;99.90
20045;DHT22;10183;47.808;9.476;2022-09-06T14:51:14;21.10;99.90
20045;DHT22;10183;47.808;9.476;2022-09-06T14:53:48;21.20;99.90
20045;DHT22;10183;47.808;9.476;2022-09-06T14:56:15;21.20;99.90
20045;DHT22;10183;47.808;9.476;2022-09-06T14:58:41;20.70;99.90
20045;DHT22;10183;47.808;9.476;2022-09-06T15:01:13;20.30;99.90
20045;DHT22;10183;47.808;9.476;2022-09-06T15:03:41;20.30;99.90
20045;DHT22;10183;47.808;9.476;2022-09-06T15:06:08;20.20;99.90
20045;DHT22;10183;47.808;9.476;2022-09-06T15:08:35;20.20;99.90
20045;DHT22;10183;47.808;9.476;2022-09-06T15:11:02;20.30;99.90
20045;DHT22;10183;47.808;9.476;2022-09-06T15:13:33;20.40;99.90
20045;DHT22;10183;47.808;9.476;2022-09-06T15:16:02;20.50;99.90
20045;DHT22;10183;47.808;9.476;2022-09-06T15:18:28;20.70;99.90
20045;DHT22;10183;47.808;9.476;2022-09-06T15:20:54;20.70;99.90
20045;DHT22;10183;47.808;9.476;2022-09-06T15:23:20;20.80;99.90
20045;DHT22;10183;47.808;9.476;2022-09-06T15:25:48;20.70;99.90
20045;DHT22;10183;47.808;9.476;2022-09-06T15:28:15;20.30;99.90
20045;DHT22;10183;47.808;9.476;2022-09-06T15:30:42;20.20;99.90
20045;DHT22;10183;47.808;9.476;2022-09-06T15:33:08;20.10;99.90
20045;DHT22;10183;47.808;9.476;2022-09-06T15:35:36;20.00;99.90
20045;DHT22;10183;47.808;9.476;2022-09-06T15:38:03;20.10;99.90
20045;DHT22;10183;47.808;9.476;2022-09-06T15:40:29;20.20;99.90
20045;DHT22;10183;47.808;9.476;2022-09-06T15:42:55;19.90;99.90
20045;DHT22;10183;47.808;9.476;2022-09-06T15:45:22;19.90;99.90
20045;DHT22;10183;47.808;9.476;2022-09-06T15:47:48;20.60;99.90
20045;DHT22;10183;47.808;9.476;2022-09-06T15:50:14;21.70;99.90
20045;DHT22;10183;47.808;9.476;2022-09-06T15:52:40;22.30;99.90
20045;DHT22;10183;47.808;9.476;2022-09-06T15:55:06;23.30;99.90
20045;DHT22;10183;47.808;9.476;2022-09-06T15:57:51;23.20;99.90
20045;DHT22;10183;47.808;9.476;2022-09-06T16:00:17;23.60;99.90
20045;DHT22;10183;47.808;9.476;2022-09-06T16:02:47;23.90;99.90
20045;DHT22;10183;47.808;9.476;2022-09-06T16:05:13;23.50;99.90
20045;DHT22;10183;47.808;9.476;2022-09-06T16:07:39;24.00;99.90
20045;DHT22;10183;47.808;9.476;2022-09-06T16:10:12;25.20;99.90
20045;DHT22;10183;47.808;9.476;2022-09-06T16:12:38;24.60;99.90
20045;DHT22;10183;47.808;9.476;2022-09-06T16:15:05;23.70;99.90
20045;DHT22;10183;47.808;9.476;2022-09-06T16:17:31;22.80;99.90
20045;DHT22;10183;47.808;9.476;2022-09-06T16:19:57;22.20;99.90
20045;DHT22;10183;47.808;9.476;2022-09-06T16:22:26;22.20;99.90
20045;DHT22;10183;47.808;9.476;2022-09-06T16:24:52;21.90;99.90
20045;DHT22;10183;47.808;9.476;2022-09-06T16:27:18;21.80;99.90
20045;DHT22;10183;47.808;9.476;2022-09-06T16:29:44;22.30;99.90
20045;DHT22;10183;47.808;9.476;2022-09-06T16:32:11;23.20;99.90
20045;DHT22;10183;47.808;9.476;2022-09-06T16:34:37;24.00;99.90
20045;DHT22;10183;47.808;9.476;2022-09-06T16:37:03;24.30;99.90
20045;DHT22;10183;47.808;9.476;2022-09-06T16:39:33;24.30;99.90
20045;DHT22;10183;47.808;9.476;2022-09-06T16:42:00;23.90;99.90
20045;DHT22;10183;47.808;9.476;2022-09-06T16:44:26;22.90;99.90
20045;DHT22;10183;47.808;9.476;2022-09-06T16:46:53;22.10;99.90
20045;DHT22;10183;47.808;9.476;2022-09-06T16:49:22;21.50;99.90
20045;DHT22;10183;47.808;9.476;2022-09-06T16:51:49;21.40;99.90
20045;DHT22;10183;47.808;9.476;2022-09-06T16:54:15;21.30;99.90
20045;DHT22;10183;47.808;9.476;2022-09-06T16:56:43;21.00;99.90
20045;DHT22;10183;47.808;9.476;2022-09-06T16:59:10;20.40;99.90
20045;DHT22;10183;47.808;9.476;2022-09-06T17:01:38;20.30;99.90
20045;DHT22;10183;47.808;9.476;2022-09-06T17:04:07;20.40;99.90
20045;DHT22;10183;47.808;9.476;2022-09-06T17:06:34;20.50;99.90
20045;DHT22;10183;47.808;9.476;2022-09-06T17:09:06;20.50;99.90
20045;DHT22;10183;47.808;9.476;2022-09-06T17:11:33;20.50;99.90
20045;DHT22;10183;47.808;9.476;2022-09-06T17:14:02;20.20;99.90
20045;DHT22;10183;47.808;9.476;2022-09-06T17:16:28;19.60;99.90
20045;DHT22;10183;47.808;9.476;2022-09-06T17:19:13;19.20;99.90
20045;DHT22;10183;47.808;9.476;2022-09-06T17:21:39;18.90;99.90
20045;DHT22;10183;47.808;9.476;2022-09-06T17:24:06;18.70;99.90
20045;DHT22;10183;47.808;9.476;2022-09-06T17:26:36;18.80;99.90
20045;DHT22;10183;47.808;9.476;2022-09-06T17:29:02;18.80;99.90
20045;DHT22;10183;47.808;9.476;2022-09-06T17:31:29;18.80;99.90
20045;DHT22;10183;47.808;9.476;2022-09-06T17:33:55;18.80;99.90
20045;DHT22;10183;47.808;9.476;2022-09-06T17:36:23;18.90;99.90